Time;durP1;ratioP1;P1;durP2;ratioP2;P2;SDS_P1;SDS_P2;PMS_P1;PMS_P2;Temp;Humidity;BMP_temperature;BMP_pressure;BME280_temperature;BME280_humidity;BME280_pressure;Samples;Min_cycle;Max_cycle;Signal;HPM_P1;HPM_P2
2022/09/25 00:00:03;;;;;;;27.05;15.27;;;;;;;14.45;55.01;96118.16;6102468;29;20060;-68
2022/09/25 00:03:10;;;;;;;28.83;14.77;;;;;;;14.39;54.98;96116.91;6101527;29;20143;-69
2022/09/25 00:06:19;;;;;;;24.80;14.05;;;;;;;14.41;55.02;96122.03;6102292;29;20601;-69
2022/09/25 00:09:23;;;;;;;25.77;12.68;;;;;;;14.37;54.83;96114.38;6102223;29;20052;-69
2022/09/25 00:12:24;;;;;;;23.58;13.02;;;;;;;14.34;54.50;96117.31;6102146;29;20521;-69
2022/09/25 00:15:29;;;;;;;25.48;12.70;;;;;;;14.29;54.82;96113.41;6116326;29;20514;-69
2022/09/25 00:21:52;;;;;;;23.77;12.13;;;;;;;14.17;54.06;96115.38;6101020;29;20048;-69
2022/09/25 00:24:54;;;;;;;23.90;12.98;;;;;;;14.13;54.01;96114.00;6101682;29;20059;-69
2022/09/25 00:27:58;;;;;;;;;;;;;;;14.04;53.53;96120.09;6102204;29;20422;-69
2022/09/25 00:31:04;;;;;;;22.02;11.68;;;;;;;14.00;53.91;96121.38;6101750;29;19927;-69
2022/09/25 00:34:05;;;;;;;23.40;11.85;;;;;;;13.95;53.82;96116.47;6101707;29;20052;-69
2022/09/25 00:37:07;;;;;;;22.30;12.40;;;;;;;13.92;53.93;96111.47;6101653;29;20058;-69
2022/09/25 00:40:10;;;;;;;19.63;9.38;;;;;;;14.05;53.12;96114.69;6101959;29;20052;-69
2022/09/25 00:43:32;;;;;;;17.98;9.13;;;;;;;14.13;52.54;96116.66;6101773;29;20040;-69
2022/09/25 00:46:44;;;;;;;20.77;8.85;;;;;;;14.26;51.40;96109.22;6101484;29;20051;-68
2022/09/25 00:49:49;;;;;;;13.45;7.28;;;;;;;14.23;51.14;96103.41;6101484;29;20080;-69
2022/09/25 00:52:58;;;;;;;18.67;8.07;;;;;;;14.28;51.12;96107.28;6101458;29;20040;-69
2022/09/25 00:56:03;;;;;;;15.68;7.28;;;;;;;14.28;50.98;96107.28;6101404;29;20179;-68
2022/09/25 00:59:10;;;;;;;15.38;8.32;;;;;;;14.29;51.11;96114.25;6101277;29;20036;-69
2022/09/25 01:02:38;;;;;;;14.40;7.50;;;;;;;14.31;51.17;96117.59;6101369;29;20043;-69
2022/09/25 01:05:43;;;;;;;17.92;8.48;;;;;;;14.32;51.33;96118.41;6101031;29;20052;-69
2022/09/25 01:08:45;;;;;;;17.17;9.07;;;;;;;14.29;51.50;96119.53;6101164;29;20059;-69
2022/09/25 01:11:50;;;;;;;18.13;8.60;;;;;;;14.32;51.71;96124.56;6100680;29;20055;-69
2022/09/25 01:14:55;;;;;;;17.92;8.50;;;;;;;14.27;52.02;96132.09;6101110;29;20056;-69
2022/09/25 01:18:30;;;;;;;18.70;8.75;;;;;;;14.28;52.09;96133.75;6101137;29;20514;-69
2022/09/25 01:21:34;;;;;;;14.10;7.68;;;;;;;14.22;52.14;96139.63;6101238;29;20048;-68
2022/09/25 01:25:11;;;;;;;16.08;8.82;;;;;;;14.19;52.56;96139.06;6101016;29;20071;-68
2022/09/25 01:28:28;;;;;;;17.45;8.40;;;;;;;14.13;52.17;96140.47;6085507;29;20074;-68
2022/09/25 01:31:40;;;;;;;14.10;7.28;;;;;;;14.06;52.91;96149.91;6101533;29;20127;-68
2022/09/25 01:35:07;;;;;;;14.77;7.60;;;;;;;14.01;52.82;96144.19;6101987;29;20054;-68
2022/09/25 01:38:31;;;;;;;12.52;7.82;;;;;;;13.92;53.10;96154.63;6105204;29;20056;-69
2022/09/25 01:41:57;;;;;;;14.38;7.95;;;;;;;13.85;53.32;96148.22;6105434;29;20608;-69
2022/09/25 01:45:08;;;;;;;18.17;8.57;;;;;;;13.81;53.78;96152.09;6105240;29;20046;-68
2022/09/25 01:48:15;;;;;;;15.20;8.25;;;;;;;13.83;53.63;96155.44;6105203;29;20048;-68
2022/09/25 01:51:31;;;;;;;17.40;9.05;;;;;;;13.95;54.03;96158.81;6105208;29;20051;-69
2022/09/25 01:54:38;;;;;;;16.20;8.38;;;;;;;14.04;53.92;96165.94;6104850;29;20052;-69
2022/09/25 01:57:52;;;;;;;18.95;8.48;;;;;;;14.19;53.76;96170.81;6104876;29;20044;-68
2022/09/25 02:01:00;;;;;;;22.45;9.48;;;;;;;14.28;53.44;96170.81;6104841;29;20053;-69
2022/09/25 02:04:08;;;;;;;15.82;9.68;;;;;;;14.35;53.51;96164.00;6103371;29;20430;-69
2022/09/25 02:07:16;;;;;;;18.20;8.70;;;;;;;14.41;53.44;96153.78;6104641;29;20051;-69
2022/09/25 02:10:26;;;;;;;12.88;7.95;;;;;;;14.42;53.07;96150.19;6104384;29;20056;-69
2022/09/25 02:13:48;;;;;;;17.23;8.25;;;;;;;14.45;52.97;96155.19;6104696;29;20080;-68
2022/09/25 02:16:57;;;;;;;18.58;8.57;;;;;;;14.46;52.83;96152.38;6104516;29;20044;-69
2022/09/25 02:23:45;;;;;;;13.32;7.70;;;;;;;14.58;52.62;96155.78;6104160;29;20052;-69
2022/09/25 02:26:51;;;;;;;18.45;8.02;;;;;;;14.62;52.51;96157.16;6086384;29;20135;-69
2022/09/25 02:29:57;;;;;;;15.65;8.20;;;;;;;14.67;52.62;96162.88;6104623;29;20044;-69
2022/09/25 02:33:00;;;;;;;17.60;8.30;;;;;;;14.67;52.53;96168.16;6103437;29;20511;-69
2022/09/25 02:36:03;;;;;;;;;;;;;;;14.64;52.29;96171.09;6104656;29;20052;-69
2022/09/25 02:39:07;;;;;;;18.38;7.65;;;;;;;14.65;52.55;96162.16;6104050;29;20059;-69
2022/09/25 02:42:30;;;;;;;16.70;8.48;;;;;;;14.71;52.44;96161.59;6103925;29;20510;-69
2022/09/25 02:46:01;;;;;;;23.15;7.40;;;;;;;14.75;52.12;96162.16;6104056;29;20067;-69
2022/09/25 02:49:34;;;;;;;17.45;8.38;;;;;;;14.77;52.13;96171.59;6103848;29;20048;-69
2022/09/25 02:52:59;;;;;;;20.05;8.10;;;;;;;14.84;52.26;96181.66;6098911;29;20518;-68
2022/09/25 02:56:42;;;;;;;15.38;7.72;;;;;;;14.88;51.90;96177.72;6103842;29;20520;-68
2022/09/25 02:59:57;;;;;;;15.93;6.95;;;;;;;14.98;51.66;96191.78;6057749;29;20049;-69
2022/09/25 03:03:06;;;;;;;13.50;7.82;;;;;;;15.00;51.44;96189.81;6103519;29;20039;-68
2022/09/25 03:06:10;;;;;;;14.82;7.55;;;;;;;15.09;51.79;96204.00;6102800;29;20056;-69
2022/09/25 03:09:14;;;;;;;23.55;11.30;;;;;;;15.10;52.04;96214.50;6103238;29;20080;-69
2022/09/25 03:12:16;;;;;;;27.98;11.10;;;;;;;15.08;51.86;96205.84;6103285;29;20056;-68
2022/09/25 03:15:23;;;;;;;18.65;8.90;;;;;;;15.07;52.69;96214.78;6103082;29;20558;-69
2022/09/25 03:18:26;;;;;;;18.15;10.63;;;;;;;14.94;53.08;96217.72;6101836;29;20063;-69
2022/09/25 03:21:27;;;;;;;23.55;12.48;;;;;;;14.79;53.69;96221.78;6101669;29;20421;-68
2022/09/25 03:24:32;;;;;;;28.98;13.75;;;;;;;14.63;55.25;96232.13;6103155;29;20400;-69
2022/09/25 03:27:39;;;;;;;20.55;10.95;;;;;;;14.40;56.65;96239.47;6101822;29;20044;-70
2022/09/25 03:30:43;;;;;;;15.95;8.43;;;;;;;14.09;57.78;96229.00;6117552;29;20448;-69
2022/09/25 03:33:47;;;;;;;27.30;8.90;;;;;;;13.84;58.88;96267.34;6102754;29;20040;-69
2022/09/25 03:36:49;;;;;;;16.77;8.35;;;;;;;13.69;59.63;96280.09;6103076;29;20055;-69
2022/09/25 03:39:53;;;;;;;14.32;7.55;;;;;;;13.57;60.13;96305.81;6102769;29;20139;-69
2022/09/25 03:42:57;;;;;;;13.13;8.35;;;;;;;13.72;61.84;96368.91;6100974;29;20052;-68
2022/09/25 03:45:58;;;;;;;15.70;9.38;;;;;;;12.95;65.30;96357.66;6102373;29;20036;-67
2022/09/25 03:49:02;;;;;;;15.80;9.93;;;;;;;12.73;67.18;96352.47;6102384;29;20502;-68
2022/09/25 03:52:13;;;;;;;13.63;8.93;;;;;;;12.06;69.57;96325.28;6102914;29;20044;-68
2022/09/25 03:55:16;;;;;;;11.55;7.78;;;;;;;11.87;70.29;96325.06;6102795;29;20056;-67
2022/09/25 03:58:17;;;;;;;13.23;7.47;;;;;;;11.87;70.67;96298.69;6100362;29;20063;-68
2022/09/25 04:01:20;;;;;;;16.48;8.30;;;;;;;12.06;70.70;96313.91;6100578;29;20542;-68
2022/09/25 04:04:24;;;;;;;12.68;7.82;;;;;;;12.28;70.95;96302.44;6101998;29;20048;-68
2022/09/25 04:07:26;;;;;;;11.23;7.97;;;;;;;12.47;70.76;96280.69;6102128;29;20434;-68
2022/09/25 04:10:32;;;;;;;12.25;7.53;;;;;;;12.71;70.35;96304.22;6102128;29;20079;-69
2022/09/25 04:13:40;;;;;;;13.48;7.72;;;;;;;12.87;69.96;96287.97;6101400;29;20510;-69
2022/09/25 04:16:42;;;;;;;14.35;8.02;;;;;;;13.02;70.37;96276.09;6101378;29;20051;-69
2022/09/25 04:19:46;;;;;;;15.98;7.93;;;;;;;13.10;70.47;96293.94;6101719;29;20099;-69
2022/09/25 04:22:50;;;;;;;13.85;8.27;;;;;;;13.19;70.52;96282.59;6101687;29;20050;-69
2022/09/25 04:25:55;;;;;;;15.93;7.72;;;;;;;13.20;70.26;96300.97;6102042;29;20047;-69
2022/09/25 04:28:56;;;;;;;14.00;7.68;;;;;;;13.08;70.87;96301.16;6101297;29;20135;-69
2022/09/25 04:35:23;;;;;;;14.55;8.50;;;;;;;12.93;71.45;96224.91;6100953;29;20058;-69
2022/09/25 04:38:24;;;;;;;13.95;8.27;;;;;;;12.88;71.82;96184.00;6101759;29;20048;-68
2022/09/25 04:41:28;;;;;;;15.07;9.27;;;;;;;12.93;72.13;96124.56;6101017;29;20059;-68
2022/09/25 04:44:32;;;;;;;14.77;9.57;;;;;;;12.95;72.35;96069.81;6101508;29;20048;-68
2022/09/25 04:47:33;;;;;;;16.10;10.88;;;;;;;13.12;72.85;96086.84;6101315;29;20119;-68
2022/09/25 04:50:39;;;;;;;18.95;9.13;;;;;;;13.11;73.46;96100.19;6101359;29;20526;-69
2022/09/25 04:53:43;;;;;;;13.05;8.02;;;;;;;13.30;73.52;96126.66;6101219;29;20542;-68
2022/09/25 04:56:47;;;;;;;19.23;11.93;;;;;;;13.66;73.54;96121.75;6100910;29;20082;-70
2022/09/25 04:59:51;;;;;;;19.80;10.40;;;;;;;14.07;72.75;96123.34;6101369;29;20048;-70
2022/09/25 05:02:58;;;;;;;14.50;9.48;;;;;;;14.44;71.64;96122.59;6100445;29;20434;-69
2022/09/25 05:06:02;;;;;;;13.70;8.60;;;;;;;15.03;70.34;96104.75;6101119;29;20519;-68
2022/09/25 05:09:06;;;;;;;11.60;8.07;;;;;;;15.74;68.03;96103.28;6104211;29;20076;-71
2022/09/25 05:12:11;;;;;;;14.35;8.25;;;;;;;16.31;66.55;96109.13;6106132;29;20043;-70
2022/09/25 05:15:15;;;;;;;18.20;9.27;;;;;;;16.83;64.82;96093.25;6105258;29;20052;-70
2022/09/25 05:18:21;;;;;;;19.65;10.23;;;;;;;17.15;62.49;96094.41;6105421;29;20494;-69
2022/09/25 05:21:26;;;;;;;15.77;8.98;;;;;;;17.22;62.19;96074.19;6105801;29;20048;-70
2022/09/25 05:24:30;;;;;;;14.55;9.63;;;;;;;17.23;62.11;96063.38;6105753;29;20060;-70
2022/09/25 05:27:36;;;;;;;12.73;8.40;;;;;;;17.02;61.78;96045.19;6105602;29;20418;-70
2022/09/25 05:30:38;;;;;;;13.30;8.00;;;;;;;16.90;62.30;96058.91;6104898;29;20058;-70
2022/09/25 05:33:42;;;;;;;16.83;8.77;;;;;;;16.71;62.17;96073.22;6104913;29;20052;-70
2022/09/25 05:36:46;;;;;;;18.75;9.00;;;;;;;16.57;62.71;96083.44;6105444;29;20494;-70
2022/09/25 05:39:48;;;;;;;22.60;10.25;;;;;;;16.51;63.03;96089.38;6105389;29;20139;-70
2022/09/25 05:42:50;;;;;;;24.00;10.52;;;;;;;16.63;62.62;96099.75;6105357;29;20130;-68
2022/09/25 05:45:56;;;;;;;20.20;10.10;;;;;;;16.63;62.98;96089.13;6105241;29;20052;-70
2022/09/25 05:48:57;;;;;;;19.58;10.35;;;;;;;16.60;62.71;96076.97;6104016;29;20525;-70
2022/09/25 05:52:04;;;;;;;29.65;14.40;;;;;;;16.48;62.18;96079.06;6104941;29;20044;-69
2022/09/25 05:55:09;;;;;;;32.00;17.80;;;;;;;16.39;62.34;96090.63;6104881;29;20529;-70
2022/09/25 05:58:11;;;;;;;44.85;25.90;;;;;;;16.38;62.65;96075.66;6105008;29;20051;-69
2022/09/25 06:01:15;;;;;;;55.17;29.55;;;;;;;16.53;62.61;96082.09;6104479;29;20044;-69
2022/09/25 06:04:19;;;;;;;57.10;30.00;;;;;;;16.72;62.45;96085.50;6104839;29;20055;-70
2022/09/25 06:07:23;;;;;;;61.88;32.33;;;;;;;16.77;61.70;96088.56;6104574;29;20044;-70
2022/09/25 06:10:25;;;;;;;60.75;30.13;;;;;;;16.70;61.83;96079.50;6104736;29;20111;-69
2022/09/25 06:13:33;;;;;;;54.67;28.10;;;;;;;16.67;61.96;96077.16;6103017;29;20155;-71
2022/09/25 06:16:35;;;;;;;61.28;31.38;;;;;;;16.70;61.90;96076.84;6104112;29;20059;-69
2022/09/25 06:19:42;;;;;;;62.55;32.28;;;;;;;16.75;62.21;96080.72;6103612;29;20036;-70
2022/09/25 06:22:52;;;;;;;64.18;32.45;;;;;;;16.99;62.08;96087.19;6104371;29;20040;-71
2022/09/25 06:25:53;;;;;;;54.83;30.83;;;;;;;17.09;61.63;96074.59;6103790;29;20055;-69
2022/09/25 06:28:58;;;;;;;51.47;28.35;;;;;;;17.30;61.39;96068.91;6103883;29;20048;-70
2022/09/25 06:32:00;;;;;;;48.03;27.27;;;;;;;17.39;61.58;96057.28;6104162;29;20056;-69
2022/09/25 06:35:03;;;;;;;52.60;29.15;;;;;;;17.47;61.65;96086.56;6103694;29;20044;-70
2022/09/25 06:38:08;;;;;;;60.88;32.55;;;;;;;17.69;61.33;96093.13;6103958;29;20131;-69
2022/09/25 06:41:11;;;;;;;66.63;34.90;;;;;;;17.92;61.18;96063.25;6103664;29;20043;-70
2022/09/25 06:44:12;;;;;;;68.13;38.55;;;;;;;18.14;60.36;96107.84;6103611;29;20043;-69
2022/09/25 06:47:15;;;;;;;;;;;;;;;18.38;59.41;96088.38;6103845;29;20048;-68
2022/09/25 06:50:17;;;;;;;58.58;31.13;;;;;;;18.83;59.13;96086.19;6103175;29;19923;-69
2022/09/25 06:53:20;;;;;;;47.97;26.63;;;;;;;19.42;57.89;96085.81;6103970;29;20066;-70
2022/09/25 06:56:21;;;;;;;;;;;;;;;19.87;57.09;96086.94;6103934;29;20080;-69
2022/09/25 06:59:24;;;;;;;45.05;21.25;;;;;;;19.92;57.47;96068.56;6103835;29;19922;-68
2022/09/25 07:05:48;;;;;;;31.90;18.75;;;;;;;19.92;58.14;96096.09;6103410;29;20063;-70
2022/09/25 07:08:52;;;;;;;37.80;18.83;;;;;;;19.85;58.72;96088.97;6103611;29;20052;-70
2022/09/25 07:11:55;;;;;;;32.45;15.68;;;;;;;19.84;59.14;96114.81;6103496;29;20059;-69
2022/09/25 07:14:58;;;;;;;34.17;17.42;;;;;;;19.79;59.13;96103.00;6103106;29;20060;-71
2022/09/25 07:18:03;;;;;;;33.75;17.02;;;;;;;19.61;59.89;96112.06;6103236;29;20123;-70
2022/09/25 07:21:12;;;;;;;28.63;16.65;;;;;;;19.47;60.34;96107.47;6103316;29;20040;-70
2022/09/25 07:24:14;;;;;;;32.05;16.25;;;;;;;19.29;60.67;96116.56;6103297;29;20112;-70
2022/09/25 07:27:18;;;;;;;30.92;16.35;;;;;;;19.09;61.52;96125.94;6102790;29;20539;-70
2022/09/25 07:30:25;;;;;;;34.25;16.27;;;;;;;18.90;62.04;96137.00;6102805;29;20047;-70
2022/09/25 07:33:29;;;;;;;33.25;15.82;;;;;;;18.64;62.73;96116.66;6102933;29;20043;-70
2022/09/25 07:36:31;;;;;;;33.67;15.98;;;;;;;18.48;63.31;96108.69;6102632;29;20070;-69
2022/09/25 07:39:33;;;;;;;31.20;15.32;;;;;;;18.31;63.61;96131.81;6102500;29;20143;-69
2022/09/25 07:42:40;;;;;;;36.65;19.23;;;;;;;18.17;64.07;96138.63;6102323;29;20052;-69
2022/09/25 07:45:53;;;;;;;34.20;18.52;;;;;;;18.06;64.25;96154.91;6102374;29;20074;-69
2022/09/25 07:48:56;;;;;;;31.25;17.10;;;;;;;17.89;64.27;96162.03;6102365;29;20052;-69
2022/09/25 07:51:58;;;;;;;31.90;16.88;;;;;;;17.84;64.77;96180.34;6102281;29;20047;-69
2022/09/25 07:55:00;;;;;;;36.00;17.17;;;;;;;17.79;64.89;96190.63;6101761;29;20048;-70
2022/09/25 07:58:02;;;;;;;37.28;16.50;;;;;;;17.67;65.03;96174.09;6102467;29;20059;-69
2022/09/25 08:01:10;;;;;;;32.15;17.80;;;;;;;17.59;65.72;96174.06;6102194;29;20087;-71
2022/09/25 08:04:15;;;;;;;31.73;15.98;;;;;;;17.33;66.54;96151.00;6101801;29;20062;-70
2022/09/25 08:07:17;;;;;;;31.67;16.80;;;;;;;17.27;67.46;96111.75;6101557;29;20059;-70
2022/09/25 08:10:19;;;;;;;32.13;16.67;;;;;;;17.23;68.02;96115.72;6101058;29;20051;-69
2022/09/25 08:13:23;;;;;;;37.47;17.90;;;;;;;17.20;68.24;96100.09;6101913;29;20048;-69
2022/09/25 08:16:28;;;;;;;40.05;17.10;;;;;;;17.09;68.89;96050.69;6101759;29;20111;-70
2022/09/25 08:19:29;;;;;;;40.60;17.75;;;;;;;17.16;69.10;96029.63;6101631;29;20059;-69
2022/09/25 08:22:32;;;;;;;33.58;16.35;;;;;;;17.12;69.20;96007.00;6101452;29;20052;-70
2022/09/25 08:25:33;;;;;;;35.17;17.45;;;;;;;17.03;69.21;95999.00;6101852;29;20451;-70
2022/09/25 08:28:41;;;;;;;40.30;18.08;;;;;;;17.03;69.66;95998.16;6101543;29;20048;-70
2022/09/25 08:31:47;;;;;;;38.60;17.55;;;;;;;17.04;69.41;95968.78;6101538;29;20048;-70
2022/09/25 08:34:53;;;;;;;37.83;16.95;;;;;;;17.16;68.88;95941.91;6101445;29;20044;-69
2022/09/25 08:37:57;;;;;;;34.55;15.85;;;;;;;17.21;68.92;95927.13;6101534;29;20418;-69
2022/09/25 08:41:08;;;;;;;26.02;14.75;;;;;;;17.28;68.71;95912.16;6101530;29;20051;-69
2022/09/25 08:44:22;;;;;;;25.35;15.80;;;;;;;17.37;68.70;95909.53;6107367;29;20048;-69
2022/09/25 08:51:06;;;;;;;39.78;21.35;;;;;;;17.60;68.11;95905.19;6082925;29;20109;-69
2022/09/25 08:54:12;;;;;;;42.73;25.07;;;;;;;17.86;67.16;95918.38;6083187;29;20092;-69
2022/09/25 08:57:29;;;;;;;38.08;24.23;;;;;;;18.33;66.08;95906.94;6109218;29;20131;-68
2022/09/25 09:00:30;;;;;;;39.47;23.67;;;;;;;19.22;63.77;95928.91;6109103;29;20035;-69
2022/09/25 09:03:56;;;;;;;37.88;21.52;;;;;;;20.88;59.89;95941.41;6109027;29;20494;-70
2022/09/25 09:07:16;;;;;;;29.40;20.77;;;;;;;22.08;55.52;95922.09;6108708;29;20044;-70
2022/09/25 09:10:36;;;;;;;32.65;19.70;;;;;;;22.00;54.68;95902.66;6108720;29;20471;-69
2022/09/25 09:13:48;;;;;;;28.95;17.60;;;;;;;21.42;55.67;95906.25;6108691;29;20050;-69
2022/09/25 09:17:04;;;;;;;33.55;20.25;;;;;;;20.96;56.14;95914.56;6108943;29;20054;-70
2022/09/25 09:20:18;;;;;;;35.60;18.92;;;;;;;20.86;56.79;95922.06;6107199;29;20084;-70
2022/09/25 09:23:31;;;;;;;35.30;19.98;;;;;;;20.90;56.48;95912.66;6107676;29;20044;-69
2022/09/25 09:26:39;;;;;;;36.55;19.40;;;;;;;20.90;56.30;95912.66;6108847;29;20047;-69
2022/09/25 09:29:52;;;;;;;28.05;17.70;;;;;;;20.63;57.05;95896.25;6108592;29;20064;-70
2022/09/25 09:33:10;;;;;;;27.25;17.38;;;;;;;20.33;57.31;95900.78;6108673;29;20044;-69
2022/09/25 09:36:18;;;;;;;32.13;18.17;;;;;;;20.02;58.01;95908.13;6107160;29;20055;-70
2022/09/25 09:39:35;;;;;;;35.40;20.33;;;;;;;19.72;58.82;95903.53;6108585;29;20123;-69
2022/09/25 09:42:44;;;;;;;33.80;19.60;;;;;;;19.46;59.51;95889.72;6108505;29;20044;-69
2022/09/25 09:46:01;;;;;;;27.67;18.60;;;;;;;19.26;59.94;95930.19;6108044;29;20060;-72
2022/09/25 09:49:11;;;;;;;26.60;15.85;;;;;;;19.20;59.61;95930.91;6106522;29;20052;-70
2022/09/25 09:52:33;;;;;;;20.17;14.20;;;;;;;19.29;58.50;95945.03;6107949;29;20048;-70
2022/09/25 09:56:03;;;;;;;22.92;14.20;;;;;;;19.60;58.11;95926.28;6103966;29;20529;-71
2022/09/25 09:59:18;;;;;;;21.50;13.18;;;;;;;20.04;56.40;95914.94;6104267;29;20044;-71
2022/09/25 10:02:49;;;;;;;25.30;15.93;;;;;;;20.55;55.05;95900.88;6105074;29;20085;-69
2022/09/25 10:06:13;;;;;;;18.25;11.68;;;;;;;20.74;54.75;95840.69;6104071;29;20059;-69
2022/09/25 10:09:18;;;;;;;15.77;11.55;;;;;;;20.57;54.58;95795.47;6104493;29;20096;-69
2022/09/25 10:12:27;;;;;;;18.90;11.43;;;;;;;20.15;55.39;95796.97;6104503;29;20414;-70
2022/09/25 10:15:34;;;;;;;19.80;11.40;;;;;;;19.75;56.01;95795.59;6103895;29;20063;-70
2022/09/25 10:18:42;;;;;;;14.38;11.07;;;;;;;19.46;56.47;95801.69;6104238;29;20056;-71
2022/09/25 10:22:11;;;;;;;15.77;10.30;;;;;;;19.02;57.18;95784.56;6104189;29;20040;-70
2022/09/25 10:25:37;;;;;;;17.98;11.45;;;;;;;18.71;57.82;95776.59;6104211;29;20122;-70
2022/09/25 10:28:45;;;;;;;17.17;11.32;;;;;;;18.56;58.53;95773.00;6103878;29;20059;-69
2022/09/25 10:31:55;;;;;;;20.90;12.38;;;;;;;18.65;57.82;95766.59;6104086;29;20048;-70
2022/09/25 10:34:59;;;;;;;17.40;11.38;;;;;;;19.01;56.75;95793.53;6103570;29;20052;-69
2022/09/25 10:38:02;;;;;;;18.55;12.35;;;;;;;19.45;55.41;95789.38;6103586;29;20495;-69
2022/09/25 10:41:09;;;;;;;19.30;12.63;;;;;;;19.79;54.41;95780.03;6102943;29;20075;-69
2022/09/25 10:44:35;;;;;;;16.65;12.38;;;;;;;19.88;54.48;95773.59;6103196;29;20044;-69
2022/09/25 10:51:09;;;;;;;20.40;12.70;;;;;;;19.52;55.42;95760.94;6102936;29;20083;-70
2022/09/25 10:54:15;;;;;;;20.30;13.65;;;;;;;19.33;55.74;95748.94;6103245;29;20581;-70
2022/09/25 10:57:45;;;;;;;21.75;13.68;;;;;;;19.06;56.57;95743.19;6102415;29;20048;-69
2022/09/25 11:00:50;;;;;;;23.33;13.80;;;;;;;18.72;57.49;95746.25;6103238;29;20091;-70
2022/09/25 11:03:58;;;;;;;23.60;13.05;;;;;;;18.58;58.40;95737.19;6103078;29;20058;-70
2022/09/25 11:07:06;;;;;;;21.88;14.88;;;;;;;18.53;58.12;95720.06;6103285;29;20048;-69
2022/09/25 11:10:22;;;;;;;19.90;12.52;;;;;;;18.51;59.07;95711.44;6103552;29;20056;-69
2022/09/25 11:13:35;;;;;;;23.52;15.07;;;;;;;18.67;58.21;95690.00;6102873;29;20127;-70
2022/09/25 11:17:03;;;;;;;20.70;13.10;;;;;;;19.01;57.63;95694.09;6102952;29;20051;-70
2022/09/25 11:20:16;;;;;;;22.85;13.82;;;;;;;19.20;57.02;95693.56;6102741;29;20430;-69
2022/09/25 11:23:42;;;;;;;18.83;13.30;;;;;;;19.17;56.47;95690.44;6102636;29;20058;-70
2022/09/25 11:27:24;;;;;;;22.05;12.98;;;;;;;19.03;56.67;95694.75;6102375;29;20139;-70
2022/09/25 11:30:43;;;;;;;18.98;13.00;;;;;;;18.90;57.10;95705.16;6098290;29;20099;-69
2022/09/25 11:34:07;;;;;;;19.33;12.23;;;;;;;18.70;57.49;95699.47;6102812;29;20103;-70
2022/09/25 11:37:16;;;;;;;18.63;13.00;;;;;;;18.59;57.96;95682.06;6102951;29;20058;-69
2022/09/25 11:44:15;;;;;;;18.77;12.50;;;;;;;18.53;57.77;95688.94;6102102;29;20054;-70
2022/09/25 11:47:35;;;;;;;19.92;12.00;;;;;;;18.54;58.04;95700.41;6101943;29;20048;-69
2022/09/25 11:51:15;;;;;;;20.75;12.95;;;;;;;18.42;58.06;95676.03;6102131;29;20039;-69
2022/09/25 11:54:37;;;;;;;19.10;12.80;;;;;;;18.18;58.80;95669.06;6101835;29;20060;-71
2022/09/25 11:58:08;;;;;;;20.00;13.88;;;;;;;18.08;59.43;95679.09;6102302;29;20040;-69
2022/09/25 12:01:22;;;;;;;19.52;12.85;;;;;;;18.01;59.59;95681.63;6084833;29;20078;-69
2022/09/25 12:04:46;;;;;;;20.10;13.63;;;;;;;17.98;59.35;95679.31;6102045;29;20077;-69
2022/09/25 12:07:48;;;;;;;20.48;13.02;;;;;;;17.87;59.40;95683.19;6101755;29;20044;-68
2022/09/25 12:11:10;;;;;;;23.20;13.93;;;;;;;17.72;60.03;95672.44;6101539;29;20139;-69
2022/09/25 12:14:17;;;;;;;21.15;14.93;;;;;;;17.62;60.44;95670.97;6101663;29;20052;-70
2022/09/25 12:17:46;;;;;;;22.55;14.80;;;;;;;17.49;60.87;95669.69;6100843;29;20052;-69
2022/09/25 12:20:50;;;;;;;25.33;13.82;;;;;;;17.25;61.69;95667.09;6101313;29;20111;-69
2022/09/25 12:24:19;;;;;;;18.88;13.23;;;;;;;17.21;62.02;95676.41;6101299;29;20103;-69
2022/09/25 12:27:50;;;;;;;22.08;14.25;;;;;;;17.10;62.22;95698.00;6094998;29;20056;-69
2022/09/25 12:31:13;;;;;;;20.60;14.30;;;;;;;16.97;62.38;95707.34;6101794;29;20046;-70
2022/09/25 12:34:36;;;;;;;20.97;13.70;;;;;;;16.96;62.92;95737.56;6101785;29;20054;-69
2022/09/25 12:38:02;;;;;;;19.98;12.07;;;;;;;16.88;62.76;95724.28;6101672;29;20040;-69
2022/09/25 12:41:16;;;;;;;24.08;14.90;;;;;;;16.91;62.70;95771.78;6101236;29;20138;-69
2022/09/25 12:44:32;;;;;;;22.00;14.70;;;;;;;16.86;62.84;95800.66;6101042;29;20048;-70
2022/09/25 12:48:02;;;;;;;21.55;12.57;;;;;;;16.60;63.85;95777.69;6101480;29;20068;-70
2022/09/25 12:51:15;;;;;;;18.52;12.88;;;;;;;16.38;64.67;95749.09;6101214;29;20052;-69
2022/09/25 12:54:16;;;;;;;20.40;12.85;;;;;;;16.35;65.03;95755.56;6100994;29;20141;-69
2022/09/25 12:57:26;;;;;;;19.90;13.57;;;;;;;16.21;65.49;95752.72;6100922;29;20052;-69
2022/09/25 13:00:31;;;;;;;21.92;13.77;;;;;;;16.15;65.93;95760.31;6100352;29;20055;-70
2022/09/25 13:03:54;;;;;;;19.52;12.98;;;;;;;16.12;66.13;95738.59;6101423;29;20060;-70
2022/09/25 13:07:13;;;;;;;20.80;15.25;;;;;;;16.09;66.25;95718.50;6101321;29;20052;-71
2022/09/25 13:10:39;;;;;;;21.63;14.98;;;;;;;16.10;66.49;95735.25;6100830;29;20059;-69
2022/09/25 13:13:45;;;;;;;26.20;16.00;;;;;;;15.99;66.73;95739.03;6100818;29;20458;-70
2022/09/25 13:16:49;;;;;;;26.02;16.17;;;;;;;15.88;66.92;95752.59;6101072;29;20047;-69
2022/09/25 13:20:25;;;;;;;42.63;27.50;;;;;;;15.81;67.05;95733.00;6099993;29;20048;-69
2022/09/25 13:23:34;;;;;;;23.90;17.92;;;;;;;15.77;67.25;95734.31;6101091;29;20044;-68
2022/09/25 13:26:46;;;;;;;28.88;17.75;;;;;;;15.74;67.70;95747.88;6101179;29;20442;-69
2022/09/25 13:29:59;;;;;;;24.77;17.23;;;;;;;15.67;67.97;95727.28;6103228;29;20047;-69
2022/09/25 13:33:03;;;;;;;26.27;16.80;;;;;;;15.61;67.91;95709.34;6105607;29;20494;-69
2022/09/25 13:36:12;;;;;;;26.65;16.75;;;;;;;15.60;67.94;95707.72;6105426;29;20048;-70
2022/09/25 13:43:20;;;;;;;27.25;18.70;;;;;;;15.61;68.58;95677.53;6105035;29;20048;-69
2022/09/25 13:46:26;;;;;;;31.58;18.15;;;;;;;15.59;68.46;95721.94;6105179;29;20494;-70
2022/09/25 13:49:34;;;;;;;24.30;19.52;;;;;;;15.52;69.08;95718.28;6103633;29;20056;-69
2022/09/25 13:52:38;;;;;;;28.95;18.20;;;;;;;15.39;69.30;95737.25;6104923;29;20118;-69
2022/09/25 13:55:49;;;;;;;30.40;20.27;;;;;;;15.24;70.08;95723.75;6104861;29;20138;-69
2022/09/25 13:59:03;;;;;;;32.88;20.48;;;;;;;15.17;70.84;95704.19;6104759;29;20514;-69
2022/09/25 14:02:42;;;;;;;32.65;20.10;;;;;;;15.10;71.15;95726.13;6104680;29;20483;-69
2022/09/25 14:05:44;;;;;;;29.83;20.20;;;;;;;14.95;71.79;95725.88;6084003;29;20052;-70
2022/09/25 14:08:48;;;;;;;27.98;21.00;;;;;;;14.91;72.07;95733.28;6104411;29;20048;-69
2022/09/25 14:12:23;;;;;;;29.40;20.23;;;;;;;14.89;72.19;95718.53;6104276;29;20051;-68
2022/09/25 14:15:34;;;;;;;30.75;20.95;;;;;;;14.78;72.69;95728.41;6088017;29;20052;-69
2022/09/25 14:18:43;;;;;;;32.53;20.80;;;;;;;14.73;73.01;95741.25;6104540;29;20551;-70
2022/09/25 14:21:47;;;;;;;27.13;20.40;;;;;;;14.71;73.36;95737.91;6104566;29;20052;-68
2022/09/25 14:24:53;;;;;;;30.90;21.13;;;;;;;14.67;73.52;95741.88;6104295;29;20044;-70
2022/09/25 14:28:00;;;;;;;37.33;23.33;;;;;;;14.66;73.73;95729.59;6104096;29;20411;-70
2022/09/25 14:31:33;;;;;;;30.50;24.05;;;;;;;14.63;73.90;95719.31;6104040;29;20044;-69
2022/09/25 14:34:41;;;;;;;35.80;24.17;;;;;;;14.59;74.48;95712.69;6103825;29;20052;-69
2022/09/25 14:38:07;;;;;;;37.58;25.67;;;;;;;14.60;74.17;95703.75;6103997;29;20048;-69
2022/09/25 14:41:48;;;;;;;38.10;24.80;;;;;;;14.53;74.90;95694.75;6103164;29;20119;-70
2022/09/25 14:45:08;;;;;;;34.72;23.80;;;;;;;14.52;74.81;95686.00;6103988;29;20052;-69
2022/09/25 14:48:16;;;;;;;38.33;25.08;;;;;;;14.50;74.87;95679.16;6103768;29;20044;-70
2022/09/25 14:51:40;;;;;;;40.00;27.55;;;;;;;14.56;75.07;95682.03;6102929;29;20523;-69
2022/09/25 14:54:45;;;;;;;38.83;27.63;;;;;;;14.60;74.96;95662.22;6103252;29;20139;-68
2022/09/25 14:57:49;;;;;;;37.28;27.48;;;;;;;14.66;74.84;95655.47;6103462;29;20048;-70
2022/09/25 15:00:58;;;;;;;;;;;;;;;14.77;74.15;95641.97;6103793;29;20527;-69
2022/09/25 15:04:05;;;;;;;43.25;28.27;;;;;;;14.68;74.97;95632.31;6102023;29;20017;-69
2022/09/25 15:07:07;;;;;;;38.15;26.52;;;;;;;14.65;74.81;95615.94;6103538;29;20072;-70